createdAt,value
2023-03-12T00:01:30.304Z,1.57
2023-03-12T00:03:33.576Z,1.55
2023-03-12T00:05:38.211Z,1.55
2023-03-12T00:07:42.778Z,1.56
2023-03-12T00:09:45.853Z,1.57
2023-03-12T00:11:48.915Z,1.52
2023-03-12T00:13:52.636Z,1.48
2023-03-12T00:15:55.822Z,1.47
2023-03-12T00:17:58.942Z,1.44
2023-03-12T00:20:02.026Z,1.45
2023-03-12T00:22:05.246Z,1.42
2023-03-12T00:24:09.953Z,1.42
2023-03-12T00:26:14.376Z,1.41
2023-03-12T00:28:17.419Z,1.41
2023-03-12T00:30:20.856Z,1.44
2023-03-12T00:32:24.498Z,1.43
2023-03-12T00:34:27.597Z,1.43
2023-03-12T00:36:32.320Z,1.46
2023-03-12T00:38:35.570Z,1.42
2023-03-12T00:40:40.345Z,1.37
2023-03-12T00:42:43.389Z,1.30
2023-03-12T00:44:46.502Z,1.24
2023-03-12T00:46:49.594Z,1.18
2023-03-12T00:48:52.726Z,1.17
2023-03-12T00:50:55.844Z,1.15
2023-03-12T00:52:58.851Z,1.15
2023-03-12T00:55:01.913Z,1.12
2023-03-12T00:57:07.296Z,1.11
2023-03-12T00:59:11.917Z,1.10
2023-03-12T01:01:15.072Z,1.08
2023-03-12T01:03:18.207Z,1.09
2023-03-12T01:05:21.501Z,1.10
2023-03-12T01:07:24.579Z,1.08
2023-03-12T01:09:27.668Z,1.06
2023-03-12T01:11:30.962Z,1.07
2023-03-12T01:13:35.401Z,1.08
2023-03-12T01:15:38.486Z,1.08
2023-03-12T01:17:41.590Z,1.07
2023-03-12T01:19:44.731Z,1.09
2023-03-12T01:21:48.005Z,1.12
2023-03-12T01:23:51.389Z,1.12
2023-03-12T01:25:55.578Z,1.08
2023-03-12T01:27:58.666Z,1.07
2023-03-12T01:30:07.230Z,1.04
2023-03-12T01:32:10.470Z,1.02
2023-03-12T01:34:13.631Z,0.99
2023-03-12T01:36:18.709Z,0.99
2023-03-12T01:38:21.833Z,0.99
2023-03-12T01:40:29.038Z,0.99
2023-03-12T01:42:33.024Z,0.99
2023-03-12T01:44:51.029Z,0.98
2023-03-12T01:46:55.612Z,0.94
2023-03-12T01:49:04.875Z,0.94
2023-03-12T01:51:09.797Z,0.95
2023-03-12T01:53:13.062Z,0.98
2023-03-12T01:55:17.455Z,0.97
2023-03-12T01:57:24.646Z,0.99
2023-03-12T01:59:31.177Z,0.98
2023-03-12T02:01:34.479Z,0.99
2023-03-12T02:03:39.762Z,1.00
2023-03-12T02:05:49.100Z,1.04
2023-03-12T02:07:52.693Z,1.07
2023-03-12T02:09:56.333Z,1.10
2023-03-12T02:12:00.052Z,1.13
2023-03-12T02:14:03.865Z,1.14
2023-03-12T02:16:08.083Z,1.14
2023-03-12T02:18:15.138Z,1.12
2023-03-12T02:20:23.734Z,1.12
2023-03-12T02:22:27.343Z,1.13
2023-03-12T02:24:35.209Z,1.12
2023-03-12T02:26:40.423Z,1.11
2023-03-12T02:28:45.955Z,1.12
2023-03-12T02:30:51.964Z,1.14
2023-03-12T02:32:56.271Z,1.16
2023-03-12T02:35:01.261Z,1.20
2023-03-12T02:37:04.942Z,1.23
2023-03-12T02:39:08.712Z,1.25
2023-03-12T02:41:15.543Z,1.26
2023-03-12T02:43:22.347Z,1.26
2023-03-12T02:45:26.498Z,1.24
2023-03-12T02:47:30.529Z,1.25
2023-03-12T02:49:35.543Z,1.21
2023-03-12T02:51:39.363Z,1.19
2023-03-12T02:53:43.212Z,1.18
2023-03-12T02:55:47.035Z,1.15
2023-03-12T02:57:50.622Z,1.16
2023-03-12T02:59:55.412Z,1.16
2023-03-12T03:02:01.083Z,1.16
2023-03-12T03:04:06.391Z,1.17
2023-03-12T03:06:10.025Z,1.18
2023-03-12T03:08:13.648Z,1.21
2023-03-12T03:10:17.642Z,1.26
2023-03-12T03:12:22.803Z,1.25
2023-03-12T03:14:26.342Z,1.28
2023-03-12T03:16:31.717Z,1.27
2023-03-12T03:18:35.813Z,1.28
2023-03-12T03:20:39.384Z,1.32
2023-03-12T03:22:43.471Z,1.31
2023-03-12T03:24:47.032Z,1.31
2023-03-12T03:26:50.466Z,1.32
2023-03-12T03:28:54.655Z,1.33
2023-03-12T03:31:01.432Z,1.35
2023-03-12T03:33:09.962Z,1.35
2023-03-12T03:35:13.399Z,1.34
2023-03-12T03:37:16.876Z,1.32
2023-03-12T03:39:21.233Z,1.36
2023-03-12T03:41:26.120Z,1.39
2023-03-12T03:43:30.653Z,1.36
2023-03-12T03:45:33.808Z,1.34
2023-03-12T03:47:37.782Z,1.37
2023-03-12T03:49:42.854Z,1.38
2023-03-12T03:51:49.969Z,1.39
2023-03-12T03:53:58.562Z,1.38
2023-03-12T03:56:07.239Z,1.39
2023-03-12T03:58:12.637Z,1.36
2023-03-12T04:00:18.082Z,1.36
2023-03-12T04:02:24.014Z,1.37
2023-03-12T04:04:27.257Z,1.36
2023-03-12T04:06:32.244Z,1.34
2023-03-12T04:08:37.252Z,1.33
2023-03-12T04:10:43.063Z,1.31
2023-03-12T04:12:46.145Z,1.33
2023-03-12T04:14:49.269Z,1.35
2023-03-12T04:16:52.380Z,1.37
2023-03-12T04:18:55.397Z,1.36
2023-03-12T04:20:59.597Z,1.36
2023-03-12T04:23:04.527Z,1.38
2023-03-12T04:25:08.404Z,1.41
2023-03-12T04:27:11.529Z,1.42
2023-03-12T04:29:15.292Z,1.46
2023-03-12T04:31:18.567Z,1.49
2023-03-12T04:33:26.270Z,1.52
2023-03-12T04:35:29.421Z,1.54
2023-03-12T04:37:33.450Z,1.54
2023-03-12T04:39:38.928Z,1.54
2023-03-12T04:41:42.148Z,1.57
2023-03-12T04:43:49.556Z,1.61
2023-03-12T04:45:54.047Z,1.59
2023-03-12T04:47:57.196Z,1.63
2023-03-12T04:50:00.334Z,1.64
2023-03-12T04:52:03.598Z,1.69
2023-03-12T04:54:06.850Z,1.71
2023-03-12T04:56:12.277Z,1.73
2023-03-12T04:58:15.781Z,1.80
2023-03-12T05:00:20.230Z,1.79
2023-03-12T05:02:23.246Z,1.81
2023-03-12T05:04:26.345Z,1.83
2023-03-12T05:06:30.276Z,1.82
2023-03-12T05:08:33.505Z,1.85
2023-03-12T05:10:36.916Z,1.87
2023-03-12T05:12:41.832Z,1.91
2023-03-12T05:14:44.990Z,1.95
2023-03-12T05:16:48.252Z,1.95
2023-03-12T05:18:51.551Z,2.00
2023-03-12T05:21:01.996Z,2.00
2023-03-12T05:23:05.179Z,2.01
2023-03-12T05:25:08.856Z,2.03
2023-03-12T05:27:12.209Z,2.04
2023-03-12T05:29:17.224Z,2.03
2023-03-12T05:31:21.457Z,2.02
2023-03-12T05:33:25.662Z,2.04
2023-03-12T05:35:28.690Z,2.05
2023-03-12T05:37:31.817Z,2.05
2023-03-12T05:39:35.960Z,2.03
2023-03-12T05:41:41.359Z,2.03
2023-03-12T05:43:51.145Z,2.07
2023-03-12T05:45:59.966Z,2.09
2023-03-12T05:48:03.246Z,2.11
2023-03-12T05:50:07.236Z,2.13
2023-03-12T05:52:12.307Z,2.12
2023-03-12T05:54:15.610Z,2.16
2023-03-12T05:56:19.600Z,2.19
2023-03-12T05:58:22.850Z,2.21
2023-03-12T06:00:26.778Z,2.22
2023-03-12T06:02:33.798Z,2.23
2023-03-12T06:04:37.019Z,2.24
2023-03-12T06:06:40.096Z,2.28
2023-03-12T06:08:44.231Z,2.32
2023-03-12T06:10:48.584Z,2.37
2023-03-12T06:12:51.788Z,2.35
2023-03-12T06:14:54.858Z,2.36
2023-03-12T06:16:58.071Z,2.34
2023-03-12T06:19:04.063Z,2.40
2023-03-12T06:21:12.801Z,2.44
2023-03-12T06:23:16.470Z,2.46
2023-03-12T06:25:19.799Z,2.48
2023-03-12T06:27:23.122Z,2.52
2023-03-12T06:29:26.252Z,2.55
2023-03-12T06:31:29.599Z,2.58
2023-03-12T06:33:33.018Z,2.60
2023-03-12T06:35:37.478Z,2.62
2023-03-12T06:37:40.635Z,2.65
2023-03-12T06:39:43.691Z,2.67
2023-03-12T06:41:46.810Z,2.70
2023-03-12T06:43:50.104Z,2.73
2023-03-12T06:45:53.172Z,2.77
2023-03-12T06:47:56.344Z,2.82
2023-03-12T06:49:59.504Z,2.87
2023-03-12T06:52:04.192Z,2.92
2023-03-12T06:54:07.342Z,2.91
2023-03-12T06:56:10.960Z,2.93
2023-03-12T06:58:14.368Z,2.96
2023-03-12T07:00:17.853Z,2.98
2023-03-12T07:02:21.136Z,2.99
2023-03-12T07:04:24.297Z,3.04
2023-03-12T07:06:27.564Z,3.05
2023-03-12T07:08:32.064Z,3.10
2023-03-12T07:10:35.135Z,3.14
2023-03-12T07:12:38.321Z,3.15
2023-03-12T07:14:41.355Z,3.12
2023-03-12T07:16:44.570Z,3.13
2023-03-12T07:18:47.660Z,3.16
2023-03-12T07:20:50.739Z,3.18
2023-03-12T07:22:53.952Z,3.22
2023-03-12T07:24:58.544Z,3.23
2023-03-12T07:27:01.635Z,3.23
2023-03-12T07:29:05.635Z,3.26
2023-03-12T07:31:08.790Z,3.27
2023-03-12T07:33:13.605Z,3.32
2023-03-12T07:35:17.002Z,3.35
2023-03-12T07:37:20.072Z,3.37
2023-03-12T07:39:23.317Z,3.37
2023-03-12T07:41:27.819Z,3.39
2023-03-12T07:43:30.928Z,3.41
2023-03-12T07:45:34.042Z,3.44
2023-03-12T07:47:37.238Z,3.46
2023-03-12T07:49:41.882Z,3.48
2023-03-12T07:51:45.459Z,3.54
2023-03-12T07:53:49.050Z,3.55
2023-03-12T07:55:52.539Z,3.53
2023-03-12T07:57:59.072Z,3.61
2023-03-12T08:00:02.393Z,3.70
2023-03-12T08:02:15.115Z,3.77
2023-03-12T08:04:18.297Z,3.87
2023-03-12T08:06:21.820Z,3.98
2023-03-12T08:08:25.041Z,4.12
2023-03-12T08:10:28.278Z,4.26
2023-03-12T08:12:31.566Z,4.39
2023-03-12T08:14:36.428Z,4.53
2023-03-12T08:16:39.603Z,4.66
2023-03-12T08:18:43.697Z,4.81
2023-03-12T08:20:47.210Z,4.98
2023-03-12T08:22:50.658Z,5.13
2023-03-12T08:24:53.840Z,5.23
2023-03-12T08:26:57.175Z,5.32
2023-03-12T08:29:01.206Z,5.37
2023-03-12T08:31:06.039Z,5.39
2023-03-12T08:33:09.244Z,5.40
2023-03-12T08:35:12.390Z,5.42
2023-03-12T08:37:16.143Z,5.48
2023-03-12T08:39:19.195Z,5.56
2023-03-12T08:41:22.495Z,5.60
2023-03-12T08:43:27.853Z,5.67
2023-03-12T08:45:32.431Z,5.75
2023-03-12T08:47:37.493Z,5.84
2023-03-12T08:49:41.936Z,5.94
2023-03-12T08:51:45.291Z,5.99
2023-03-12T08:53:48.671Z,6.01
2023-03-12T08:55:54.111Z,6.01
2023-03-12T08:57:57.522Z,5.97
2023-03-12T09:00:00.614Z,5.91
2023-03-12T09:02:03.718Z,5.73
2023-03-12T09:04:08.962Z,5.74
2023-03-12T09:06:16.766Z,5.85
2023-03-12T09:08:19.884Z,5.95
2023-03-12T09:10:23.091Z,6.06
2023-03-12T09:12:26.474Z,6.11
2023-03-12T09:16:52.750Z,6.18
2023-03-12T09:18:56.185Z,6.28
2023-03-12T09:21:00.847Z,6.32
2023-03-12T09:23:05.164Z,6.39
2023-03-12T09:25:11.123Z,6.50
2023-03-12T09:27:14.381Z,6.62
2023-03-12T09:29:17.855Z,6.66
2023-03-12T09:31:21.087Z,6.67
2023-03-12T09:33:24.384Z,6.71
2023-03-12T09:35:27.662Z,6.76
2023-03-12T09:37:32.661Z,6.83
2023-03-12T09:39:36.242Z,6.92
2023-03-12T09:41:41.344Z,6.99
2023-03-12T09:43:49.172Z,7.06
2023-03-12T09:45:52.941Z,7.09
2023-03-12T09:47:58.374Z,7.12
2023-03-12T09:50:05.587Z,7.14
2023-03-12T09:52:17.909Z,7.15
2023-03-12T09:54:27.168Z,7.15
2023-03-12T09:56:30.955Z,7.16
2023-03-12T09:58:35.863Z,7.20
2023-03-12T10:00:38.894Z,7.20
2023-03-12T10:03:08.796Z,7.24
2023-03-12T10:05:17.446Z,7.28
2023-03-12T10:07:24.367Z,7.36
2023-03-12T10:09:37.642Z,7.41
2023-03-12T10:11:48.466Z,7.48
2023-03-12T10:14:01.674Z,7.52
2023-03-12T10:16:13.568Z,7.54
2023-03-12T10:18:26.343Z,7.57
2023-03-12T10:20:46.721Z,7.60
2023-03-12T10:22:55.174Z,7.60
2023-03-12T10:25:02.678Z,7.62
2023-03-12T10:27:11.216Z,7.63
2023-03-12T10:29:17.972Z,7.64
2023-03-12T10:31:24.722Z,7.65
2023-03-12T10:33:38.960Z,7.66
2023-03-12T10:35:42.218Z,7.66
2023-03-12T10:37:48.306Z,7.64
2023-03-12T10:39:52.967Z,7.62
2023-03-12T10:41:58.001Z,7.62
2023-03-12T10:44:05.048Z,7.58
2023-03-12T10:46:29.842Z,7.56
2023-03-12T10:48:33.167Z,7.60
2023-03-12T10:50:37.979Z,7.62
2023-03-12T10:52:41.116Z,7.64
2023-03-12T10:54:45.554Z,7.62
2023-03-12T10:56:50.647Z,7.61
2023-03-12T10:58:55.223Z,7.62
2023-03-12T11:00:59.941Z,7.64
2023-03-12T11:03:06.227Z,7.66
2023-03-12T11:05:21.411Z,7.67
2023-03-12T11:07:27.687Z,7.69
2023-03-12T11:09:31.123Z,7.72
2023-03-12T11:11:38.571Z,7.74
2023-03-12T11:13:42.957Z,7.79
2023-03-12T11:15:47.841Z,7.80
2023-03-12T11:17:51.122Z,7.82
2023-03-12T11:19:54.435Z,7.82
2023-03-12T11:22:00.123Z,7.85
2023-03-12T11:24:09.958Z,7.86
2023-03-12T11:26:18.008Z,7.87
2023-03-12T11:28:25.704Z,7.87
2023-03-12T11:30:33.643Z,7.92
2023-03-12T11:32:40.683Z,7.93
2023-03-12T11:34:47.665Z,7.92
2023-03-12T11:36:56.326Z,7.91
2023-03-12T11:39:04.784Z,7.91
2023-03-12T11:41:27.720Z,7.91
2023-03-12T11:43:44.397Z,7.96
2023-03-12T11:45:56.072Z,8.00
2023-03-12T11:48:13.338Z,8.11
2023-03-12T11:50:29.652Z,8.22
2023-03-12T11:52:41.739Z,8.31
2023-03-12T11:54:52.617Z,8.39
2023-03-12T11:56:57.717Z,8.42
2023-03-12T11:59:11.487Z,8.45
2023-03-12T12:01:21.319Z,8.54
2023-03-12T12:03:45.674Z,8.64
2023-03-12T12:05:56.717Z,8.75
2023-03-12T12:08:19.002Z,8.75
2023-03-12T12:10:27.612Z,8.78
2023-03-12T12:12:49.887Z,8.78
2023-03-12T12:15:02.864Z,8.77
2023-03-12T12:17:16.835Z,8.77
2023-03-12T12:19:29.232Z,8.78
2023-03-12T12:21:46.124Z,8.78
2023-03-12T12:23:54.733Z,8.85
2023-03-12T12:26:05.974Z,8.99
2023-03-12T12:28:31.464Z,9.16
2023-03-12T12:30:45.469Z,9.34
2023-03-12T12:33:00.771Z,9.44
2023-03-12T12:35:19.506Z,9.48
2023-03-12T12:37:26.614Z,9.54
2023-03-12T12:39:33.784Z,9.57
2023-03-12T12:41:39.086Z,9.60
2023-03-12T12:43:43.674Z,9.64
2023-03-12T12:45:48.160Z,9.66
2023-03-12T12:47:56.224Z,9.68
2023-03-12T12:49:59.777Z,9.67
2023-03-12T12:52:06.694Z,9.67
2023-03-12T12:54:16.662Z,9.65
2023-03-12T12:56:24.418Z,9.66
2023-03-12T12:58:40.038Z,9.72
2023-03-12T13:00:47.683Z,9.82
2023-03-12T13:02:51.742Z,9.92
2023-03-12T13:04:56.389Z,10.01
2023-03-12T13:07:03.002Z,10.09
2023-03-12T13:09:17.484Z,10.14
2023-03-12T13:11:40.809Z,10.22
2023-03-12T13:13:44.831Z,10.36
2023-03-12T13:15:49.058Z,10.47
2023-03-12T13:18:08.899Z,10.59
2023-03-12T13:20:17.529Z,10.60
2023-03-12T13:22:28.418Z,10.60
2023-03-12T13:24:34.695Z,10.58
2023-03-12T13:26:50.619Z,10.60
2023-03-12T13:29:21.825Z,10.58
2023-03-12T13:31:38.971Z,10.58
2023-03-12T13:33:45.334Z,10.61
2023-03-12T13:36:23.703Z,10.66
2023-03-12T13:38:36.497Z,10.65
2023-03-12T13:41:03.050Z,10.69
2023-03-12T13:43:12.607Z,10.71
2023-03-12T13:45:31.079Z,10.76
2023-03-12T13:47:39.020Z,10.78
2023-03-12T13:49:44.744Z,10.79
2023-03-12T13:52:00.859Z,10.93
2023-03-12T13:54:04.267Z,11.12
2023-03-12T13:56:11.686Z,11.28
2023-03-12T13:58:17.011Z,11.35
2023-03-12T14:00:22.080Z,11.38
2023-03-12T14:02:28.424Z,11.31
2023-03-12T14:04:36.022Z,11.36
2023-03-12T14:06:53.578Z,11.46
2023-03-12T14:09:12.915Z,11.47
2023-03-12T14:11:25.704Z,11.50
2023-03-12T14:13:41.179Z,11.51
2023-03-12T14:15:49.297Z,11.54
2023-03-12T14:17:57.942Z,11.63
2023-03-12T14:20:02.937Z,11.70
2023-03-12T14:22:08.332Z,11.75
2023-03-12T14:24:24.823Z,11.76
2023-03-12T14:26:33.159Z,11.74
2023-03-12T14:28:40.807Z,11.68
2023-03-12T14:30:50.364Z,11.65
2023-03-12T14:32:56.511Z,11.61
2023-03-12T14:35:09.937Z,11.58
2023-03-12T14:37:16.722Z,11.56
2023-03-12T14:39:26.569Z,11.55
2023-03-12T14:41:32.654Z,11.56
2023-03-12T14:43:36.385Z,11.62
2023-03-12T14:45:41.332Z,11.65
2023-03-12T14:47:46.410Z,11.67
2023-03-12T14:49:49.523Z,11.68
2023-03-12T14:51:52.951Z,11.68
2023-03-12T14:53:57.007Z,11.70
2023-03-12T14:56:06.387Z,11.73
2023-03-12T14:58:17.115Z,11.75
2023-03-12T15:00:25.126Z,11.80
2023-03-12T15:02:29.781Z,11.86
2023-03-12T15:04:35.138Z,11.93
2023-03-12T15:06:41.034Z,11.99
2023-03-12T15:08:44.470Z,12.03
2023-03-12T15:10:49.570Z,12.07
2023-03-12T15:12:55.857Z,12.06
2023-03-12T15:15:03.732Z,12.06
2023-03-12T15:17:07.754Z,12.06
2023-03-12T15:19:13.428Z,11.99
2023-03-12T15:21:16.921Z,12.01
2023-03-12T15:23:20.507Z,11.97
2023-03-12T15:25:25.058Z,11.93
2023-03-12T15:27:33.467Z,11.93
2023-03-12T15:29:42.020Z,11.91
2023-03-12T15:31:47.800Z,11.89
2023-03-12T15:34:02.170Z,11.90
2023-03-12T15:36:07.670Z,11.93
2023-03-12T15:38:17.880Z,11.96
2023-03-12T15:40:22.762Z,11.98
2023-03-12T15:42:27.400Z,11.98
2023-03-12T15:44:35.101Z,11.98
2023-03-12T15:46:38.283Z,11.96
2023-03-12T15:48:48.652Z,11.92
2023-03-12T15:50:51.772Z,11.92
2023-03-12T15:53:03.137Z,11.90
2023-03-12T15:55:20.520Z,11.92
2023-03-12T15:57:25.220Z,11.92
2023-03-12T15:59:29.178Z,11.94
2023-03-12T16:01:45.518Z,11.95
2023-03-12T16:03:50.003Z,11.97
2023-03-12T16:05:53.075Z,11.97
2023-03-12T16:07:56.214Z,11.96
2023-03-12T16:09:59.288Z,11.95
2023-03-12T16:12:02.586Z,11.97
2023-03-12T16:14:07.411Z,11.96
2023-03-12T16:16:11.384Z,11.96
2023-03-12T16:18:15.778Z,11.97
2023-03-12T16:20:21.285Z,12.00
2023-03-12T16:22:24.383Z,12.01
2023-03-12T16:24:27.623Z,12.01
2023-03-12T16:26:30.765Z,12.01
2023-03-12T16:28:35.400Z,12.00
2023-03-12T16:30:38.476Z,12.01
2023-03-12T16:32:41.657Z,12.01
2023-03-12T16:34:45.398Z,11.98
2023-03-12T16:36:49.991Z,11.98
2023-03-12T16:38:53.052Z,11.97
2023-03-12T16:40:56.153Z,11.92
2023-03-12T16:43:02.587Z,11.87
2023-03-12T16:45:06.676Z,11.86
2023-03-12T16:47:11.795Z,11.84
2023-03-12T16:49:15.825Z,11.83
2023-03-12T16:51:18.923Z,11.79
2023-03-12T16:53:23.901Z,11.79
2023-03-12T16:55:29.017Z,11.71
2023-03-12T16:57:34.926Z,11.67
2023-03-12T16:59:38.580Z,11.60
2023-03-12T17:01:41.664Z,11.58
2023-03-12T17:03:48.892Z,11.53
2023-03-12T17:05:52.108Z,11.50
2023-03-12T17:07:56.721Z,11.46
2023-03-12T17:10:01.169Z,11.43
2023-03-12T17:12:05.543Z,11.41
2023-03-12T17:14:17.078Z,11.38
2023-03-12T17:16:20.475Z,11.36
2023-03-12T17:18:25.501Z,11.32
2023-03-12T17:20:28.581Z,11.32
2023-03-12T17:22:31.786Z,11.31
2023-03-12T17:24:34.992Z,11.31
2023-03-12T17:26:40.366Z,11.28
2023-03-12T17:28:43.527Z,11.28
2023-03-12T17:30:47.379Z,11.28
2023-03-12T17:32:51.149Z,11.28
2023-03-12T17:34:56.745Z,11.28
2023-03-12T17:37:00.116Z,11.26
2023-03-12T17:39:03.180Z,11.26
2023-03-12T17:41:23.426Z,11.27
2023-03-12T17:43:30.309Z,11.24
2023-03-12T17:45:33.975Z,11.23
2023-03-12T17:47:37.360Z,11.19
2023-03-12T17:49:41.241Z,11.15
2023-03-12T17:51:45.435Z,11.14
2023-03-12T17:53:48.858Z,11.11
2023-03-12T17:55:52.053Z,11.08
2023-03-12T17:57:55.273Z,11.06
2023-03-12T17:59:59.795Z,11.03
2023-03-12T18:02:02.974Z,11.00
2023-03-12T18:04:06.165Z,11.01
2023-03-12T18:06:09.343Z,10.99
2023-03-12T18:08:12.981Z,10.99
2023-03-12T18:10:16.077Z,10.99
2023-03-12T18:12:19.220Z,10.99
2023-03-12T18:14:22.438Z,11.02
2023-03-12T18:16:26.982Z,11.03
2023-03-12T18:18:30.292Z,11.04
2023-03-12T18:20:39.326Z,11.03
2023-03-12T18:22:45.292Z,11.02
2023-03-12T18:24:48.280Z,11.00
2023-03-12T18:26:52.268Z,10.99
2023-03-12T18:28:55.830Z,11.00
2023-03-12T18:30:58.979Z,11.02
2023-03-12T18:33:03.617Z,11.04
2023-03-12T18:35:07.750Z,11.07
2023-03-12T18:37:10.878Z,11.09
2023-03-12T18:39:13.968Z,11.10
2023-03-12T18:41:17.087Z,11.10
2023-03-12T18:43:21.841Z,11.12
2023-03-12T18:45:25.169Z,11.09
2023-03-12T18:47:28.374Z,11.08
2023-03-12T18:49:32.840Z,11.08
2023-03-12T18:51:36.677Z,11.06
2023-03-12T18:53:39.745Z,11.07
2023-03-12T18:55:42.970Z,11.09
2023-03-12T18:57:47.249Z,11.11
2023-03-12T18:59:50.706Z,11.11
2023-03-12T19:01:54.170Z,11.14
2023-03-12T19:03:57.317Z,11.14
2023-03-12T19:06:06.039Z,11.15
2023-03-12T19:08:09.156Z,11.17
2023-03-12T19:10:13.708Z,11.18
2023-03-12T19:12:16.786Z,11.20
2023-03-12T19:14:19.853Z,11.21
2023-03-12T19:16:23.384Z,11.25
2023-03-12T19:18:26.572Z,11.25
2023-03-12T19:20:30.857Z,11.27
2023-03-12T19:22:35.313Z,11.27
2023-03-12T19:24:38.495Z,11.29
2023-03-12T19:26:41.674Z,11.30
2023-03-12T19:28:45.224Z,11.30
2023-03-12T19:30:48.456Z,11.27
2023-03-12T19:32:51.569Z,11.26
2023-03-12T19:34:54.699Z,11.24
2023-03-12T19:36:57.802Z,11.23
2023-03-12T19:39:04.373Z,11.25
2023-03-12T19:41:10.253Z,11.25
2023-03-12T19:43:13.406Z,11.24
2023-03-12T19:45:16.751Z,11.24
2023-03-12T19:47:21.871Z,11.23
2023-03-12T19:49:25.330Z,11.22
2023-03-12T19:51:28.492Z,11.20
2023-03-12T19:53:31.636Z,11.20
2023-03-12T19:55:36.120Z,11.23
2023-03-12T19:57:39.848Z,11.21
2023-03-12T19:59:43.210Z,11.23
2023-03-12T20:01:46.298Z,11.23
2023-03-12T20:03:49.458Z,11.22
2023-03-12T20:05:52.536Z,11.25
2023-03-12T20:07:55.741Z,11.25
2023-03-12T20:09:59.388Z,11.25
2023-03-12T20:12:03.936Z,11.28
2023-03-12T20:14:07.045Z,11.31
2023-03-12T20:16:12.607Z,11.34
2023-03-12T20:18:15.927Z,11.37
2023-03-12T20:20:19.427Z,11.35
2023-03-12T20:22:22.674Z,11.36
2023-03-12T20:24:25.714Z,11.39
2023-03-12T20:26:28.951Z,11.38
2023-03-12T20:28:35.440Z,11.37
2023-03-12T20:30:40.545Z,11.36
2023-03-12T20:32:43.932Z,11.35
2023-03-12T20:34:47.160Z,11.34
2023-03-12T20:36:50.317Z,11.36
2023-03-12T20:38:53.676Z,11.36
2023-03-12T20:40:56.814Z,11.39
2023-03-12T20:43:02.511Z,11.38
2023-03-12T20:45:08.314Z,11.36
2023-03-12T20:47:11.662Z,11.37
2023-03-12T20:49:14.843Z,11.37
2023-03-12T20:51:18.405Z,11.39
2023-03-12T20:53:21.498Z,11.40
2023-03-12T20:55:24.559Z,11.41
2023-03-12T20:57:27.746Z,11.43
2023-03-12T20:59:31.106Z,11.45
2023-03-12T21:01:35.713Z,11.48
2023-03-12T21:03:38.841Z,11.48
2023-03-12T21:05:42.697Z,11.49
2023-03-12T21:07:45.757Z,11.53
2023-03-12T21:09:48.864Z,11.51
2023-03-12T21:11:51.924Z,11.50
2023-03-12T21:13:55.103Z,11.53
2023-03-12T21:15:58.259Z,11.55
2023-03-12T21:18:02.687Z,11.56
2023-03-12T21:20:09.686Z,11.57
2023-03-12T21:22:13.123Z,11.55
2023-03-12T21:24:16.239Z,11.56
2023-03-12T21:26:19.384Z,11.58
2023-03-12T21:28:22.440Z,11.58
2023-03-12T21:30:25.573Z,11.62
2023-03-12T21:32:29.119Z,11.61
2023-03-12T21:34:33.619Z,11.65
2023-03-12T21:36:36.840Z,11.67
2023-03-12T21:38:42.653Z,11.67
2023-03-12T21:40:45.777Z,11.65
2023-03-12T21:42:48.968Z,11.63
2023-03-12T21:44:52.111Z,11.66
2023-03-12T21:46:55.287Z,11.67
2023-03-12T21:48:58.738Z,11.69
2023-03-12T21:51:07.594Z,11.69
2023-03-12T21:53:22.653Z,11.69
2023-03-12T21:55:26.878Z,11.70
2023-03-12T21:57:30.465Z,11.72
2023-03-12T21:59:33.930Z,11.73
2023-03-12T22:01:37.086Z,11.74
2023-03-12T22:03:41.237Z,11.74
2023-03-12T22:05:44.361Z,11.72
2023-03-12T22:07:48.739Z,11.74
2023-03-12T22:09:51.899Z,11.75
2023-03-12T22:11:55.088Z,11.73
2023-03-12T22:13:58.149Z,11.70
2023-03-12T22:16:02.260Z,11.69
2023-03-12T22:18:05.448Z,11.68
2023-03-12T22:20:10.266Z,11.68
2023-03-12T22:22:14.135Z,11.69
2023-03-12T22:24:18.546Z,11.70
2023-03-12T22:26:22.317Z,11.68
2023-03-12T22:28:25.966Z,11.68
2023-03-12T22:30:29.306Z,11.68
2023-03-12T22:32:32.598Z,11.68
2023-03-12T22:34:35.750Z,11.69
2023-03-12T22:36:39.714Z,11.69
2023-03-12T22:38:43.298Z,11.68
2023-03-12T22:40:47.843Z,11.68
2023-03-12T22:42:50.999Z,11.69
2023-03-12T22:44:54.013Z,11.69
2023-03-12T22:46:57.198Z,11.68
2023-03-12T22:49:01.555Z,11.66
2023-03-12T22:51:05.251Z,11.63
2023-03-12T22:53:08.320Z,11.58
2023-03-12T22:55:11.809Z,11.54
2023-03-12T22:57:16.297Z,11.49
2023-03-12T22:59:19.390Z,11.45
2023-03-12T23:01:24.094Z,11.41
2023-03-12T23:03:27.444Z,11.38
2023-03-12T23:05:30.608Z,11.33
2023-03-12T23:07:33.892Z,11.28
2023-03-12T23:09:37.050Z,11.25
2023-03-12T23:11:41.149Z,11.21
2023-03-12T23:13:46.702Z,11.18
2023-03-12T23:15:49.895Z,11.15
2023-03-12T23:17:52.967Z,11.12
2023-03-12T23:19:56.060Z,11.07
2023-03-12T23:21:59.168Z,11.05
2023-03-12T23:24:02.268Z,11.04
2023-03-12T23:26:05.674Z,11.03
2023-03-12T23:28:08.791Z,11.00
2023-03-12T23:30:15.063Z,10.98
2023-03-12T23:32:18.179Z,10.93
2023-03-12T23:34:21.244Z,10.91
2023-03-12T23:36:25.214Z,10.89
2023-03-12T23:38:28.451Z,10.87
2023-03-12T23:40:31.534Z,10.86
2023-03-12T23:42:34.540Z,10.84
2023-03-12T23:44:38.930Z,10.84
2023-03-12T23:46:45.087Z,10.81
2023-03-12T23:48:48.296Z,10.80
2023-03-12T23:50:51.461Z,10.80
2023-03-12T23:52:55.285Z,10.78
2023-03-12T23:54:58.394Z,10.79
2023-03-12T23:57:01.502Z,10.80
2023-03-12T23:59:05.354Z,10.79
